sensor_id;sensor_type;location;lat;lon;timestamp;P1;durP1;ratioP1;P2;durP2;ratioP2
27015;SDS011;14557;0.000;0.000;2023-02-01T00:01:42;6.78;;;1.05;;
27015;SDS011;14557;0.000;0.000;2023-02-01T00:04:08;4.82;;;1.20;;
27015;SDS011;14557;0.000;0.000;2023-02-01T00:06:34;2.60;;;0.60;;
27015;SDS011;14557;0.000;0.000;2023-02-01T00:09:00;2.97;;;0.68;;
27015;SDS011;14557;0.000;0.000;2023-02-01T00:11:26;3.55;;;0.80;;
27015;SDS011;14557;0.000;0.000;2023-02-01T00:13:52;5.25;;;0.90;;
27015;SDS011;14557;0.000;0.000;2023-02-01T00:16:19;3.67;;;0.82;;
27015;SDS011;14557;0.000;0.000;2023-02-01T00:18:47;2.78;;;0.80;;
27015;SDS011;14557;0.000;0.000;2023-02-01T00:21:16;3.70;;;0.88;;
27015;SDS011;14557;0.000;0.000;2023-02-01T00:23:43;4.25;;;0.90;;
27015;SDS011;14557;0.000;0.000;2023-02-01T00:29:02;4.57;;;0.82;;
27015;SDS011;14557;0.000;0.000;2023-02-01T00:31:30;2.50;;;0.50;;
27015;SDS011;14557;0.000;0.000;2023-02-01T00:33:56;4.45;;;0.63;;
27015;SDS011;14557;0.000;0.000;2023-02-01T00:36:21;4.20;;;0.85;;
27015;SDS011;14557;0.000;0.000;2023-02-01T00:38:47;3.70;;;0.80;;
27015;SDS011;14557;0.000;0.000;2023-02-01T00:41:17;2.83;;;0.60;;
27015;SDS011;14557;0.000;0.000;2023-02-01T00:43:44;4.13;;;0.98;;
27015;SDS011;14557;0.000;0.000;2023-02-01T00:46:12;3.43;;;1.07;;
27015;SDS011;14557;0.000;0.000;2023-02-01T00:48:38;3.05;;;0.77;;
27015;SDS011;14557;0.000;0.000;2023-02-01T00:51:06;4.53;;;0.88;;
27015;SDS011;14557;0.000;0.000;2023-02-01T00:53:33;3.58;;;0.80;;
27015;SDS011;14557;0.000;0.000;2023-02-01T00:55:59;3.75;;;0.57;;
27015;SDS011;14557;0.000;0.000;2023-02-01T00:58:25;2.75;;;0.60;;
27015;SDS011;14557;0.000;0.000;2023-02-01T01:01:08;2.40;;;0.43;;
27015;SDS011;14557;0.000;0.000;2023-02-01T01:03:36;4.55;;;0.60;;
27015;SDS011;14557;0.000;0.000;2023-02-01T01:06:06;2.90;;;0.50;;
27015;SDS011;14557;0.000;0.000;2023-02-01T01:08:33;2.13;;;0.50;;
27015;SDS011;14557;0.000;0.000;2023-02-01T01:11:10;2.10;;;0.60;;
27015;SDS011;14557;0.000;0.000;2023-02-01T01:13:38;2.17;;;0.57;;
27015;SDS011;14557;0.000;0.000;2023-02-01T01:16:04;2.60;;;0.70;;
27015;SDS011;14557;0.000;0.000;2023-02-01T01:20:58;1.60;;;0.80;;
27015;SDS011;14557;0.000;0.000;2023-02-01T01:23:24;2.35;;;0.70;;
27015;SDS011;14557;0.000;0.000;2023-02-01T01:25:51;2.05;;;0.60;;
27015;SDS011;14557;0.000;0.000;2023-02-01T01:28:17;1.88;;;0.30;;
27015;SDS011;14557;0.000;0.000;2023-02-01T01:30:42;2.90;;;0.55;;
27015;SDS011;14557;0.000;0.000;2023-02-01T01:33:09;32.13;;;4.93;;
27015;SDS011;14557;0.000;0.000;2023-02-01T01:35:35;42.85;;;7.28;;
27015;SDS011;14557;0.000;0.000;2023-02-01T01:38:00;25.85;;;3.75;;
27015;SDS011;14557;0.000;0.000;2023-02-01T01:40:28;29.73;;;5.28;;
27015;SDS011;14557;0.000;0.000;2023-02-01T01:42:54;26.92;;;4.32;;
27015;SDS011;14557;0.000;0.000;2023-02-01T01:45:23;20.15;;;3.17;;
27015;SDS011;14557;0.000;0.000;2023-02-01T01:47:56;11.30;;;2.10;;
27015;SDS011;14557;0.000;0.000;2023-02-01T01:50:33;9.23;;;1.88;;
27015;SDS011;14557;0.000;0.000;2023-02-01T01:53:05;7.45;;;1.20;;
27015;SDS011;14557;0.000;0.000;2023-02-01T01:55:35;5.70;;;1.38;;
27015;SDS011;14557;0.000;0.000;2023-02-01T01:58:10;6.38;;;1.50;;
27015;SDS011;14557;0.000;0.000;2023-02-01T02:00:41;5.07;;;1.13;;
27015;SDS011;14557;0.000;0.000;2023-02-01T02:03:18;4.47;;;1.27;;
27015;SDS011;14557;0.000;0.000;2023-02-01T02:05:44;7.30;;;1.30;;
27015;SDS011;14557;0.000;0.000;2023-02-01T02:08:13;5.65;;;1.00;;
27015;SDS011;14557;0.000;0.000;2023-02-01T02:10:39;7.28;;;1.33;;
27015;SDS011;14557;0.000;0.000;2023-02-01T02:13:23;5.85;;;0.93;;
27015;SDS011;14557;0.000;0.000;2023-02-01T02:16:13;6.88;;;1.70;;
27015;SDS011;14557;0.000;0.000;2023-02-01T02:23:45;4.00;;;0.65;;
27015;SDS011;14557;0.000;0.000;2023-02-01T02:26:20;3.13;;;0.95;;
27015;SDS011;14557;0.000;0.000;2023-02-01T02:51:05;2.58;;;0.70;;
27015;SDS011;14557;0.000;0.000;2023-02-01T02:56:44;4.10;;;0.80;;
27015;SDS011;14557;0.000;0.000;2023-02-01T02:59:28;2.00;;;0.60;;
27015;SDS011;14557;0.000;0.000;2023-02-01T03:02:13;3.35;;;0.80;;
27015;SDS011;14557;0.000;0.000;2023-02-01T03:04:59;1.67;;;0.50;;
27015;SDS011;14557;0.000;0.000;2023-02-01T03:12:53;2.25;;;0.75;;
27015;SDS011;14557;0.000;0.000;2023-02-01T03:15:32;2.33;;;0.73;;
27015;SDS011;14557;0.000;0.000;2023-02-01T03:17:58;3.15;;;0.90;;
27015;SDS011;14557;0.000;0.000;2023-02-01T03:20:28;3.88;;;1.10;;
27015;SDS011;14557;0.000;0.000;2023-02-01T03:22:55;3.70;;;0.85;;
27015;SDS011;14557;0.000;0.000;2023-02-01T03:25:25;2.45;;;0.60;;
27015;SDS011;14557;0.000;0.000;2023-02-01T03:28:06;2.55;;;0.93;;
27015;SDS011;14557;0.000;0.000;2023-02-01T03:33:09;1.95;;;0.68;;
27015;SDS011;14557;0.000;0.000;2023-02-01T03:41:44;2.35;;;0.60;;
27015;SDS011;14557;0.000;0.000;2023-02-01T03:47:12;1.50;;;0.50;;
27015;SDS011;14557;0.000;0.000;2023-02-01T03:49:46;3.95;;;0.80;;
27015;SDS011;14557;0.000;0.000;2023-02-01T03:52:24;2.30;;;0.82;;
27015;SDS011;14557;0.000;0.000;2023-02-01T03:54:57;2.72;;;0.60;;
27015;SDS011;14557;0.000;0.000;2023-02-01T03:57:29;2.15;;;0.60;;
27015;SDS011;14557;0.000;0.000;2023-02-01T04:00:18;1.90;;;0.60;;
27015;SDS011;14557;0.000;0.000;2023-02-01T04:02:47;1.03;;;0.40;;
27015;SDS011;14557;0.000;0.000;2023-02-01T04:05:13;2.92;;;0.60;;
27015;SDS011;14557;0.000;0.000;2023-02-01T04:07:39;1.90;;;0.50;;
27015;SDS011;14557;0.000;0.000;2023-02-01T04:10:05;1.20;;;0.47;;
27015;SDS011;14557;0.000;0.000;2023-02-01T04:12:31;2.83;;;0.60;;
27015;SDS011;14557;0.000;0.000;2023-02-01T04:14:57;2.28;;;0.65;;
27015;SDS011;14557;0.000;0.000;2023-02-01T04:17:23;1.30;;;0.25;;
27015;SDS011;14557;0.000;0.000;2023-02-01T04:19:49;2.00;;;0.40;;
27015;SDS011;14557;0.000;0.000;2023-02-01T04:22:15;1.77;;;0.45;;
27015;SDS011;14557;0.000;0.000;2023-02-01T04:24:41;1.67;;;0.50;;
27015;SDS011;14557;0.000;0.000;2023-02-01T04:27:06;0.88;;;0.32;;
27015;SDS011;14557;0.000;0.000;2023-02-01T04:29:32;0.68;;;0.30;;
27015;SDS011;14557;0.000;0.000;2023-02-01T04:31:58;1.38;;;0.50;;
27015;SDS011;14557;0.000;0.000;2023-02-01T04:34:24;1.95;;;0.60;;
27015;SDS011;14557;0.000;0.000;2023-02-01T04:36:50;1.55;;;0.40;;
27015;SDS011;14557;0.000;0.000;2023-02-01T04:39:16;1.83;;;0.40;;
27015;SDS011;14557;0.000;0.000;2023-02-01T04:41:42;1.13;;;0.30;;
27015;SDS011;14557;0.000;0.000;2023-02-01T04:44:15;1.70;;;0.47;;
27015;SDS011;14557;0.000;0.000;2023-02-01T04:46:42;1.58;;;0.45;;
27015;SDS011;14557;0.000;0.000;2023-02-01T04:49:08;0.90;;;0.25;;
27015;SDS011;14557;0.000;0.000;2023-02-01T04:51:35;1.33;;;0.30;;
27015;SDS011;14557;0.000;0.000;2023-02-01T04:54:01;1.38;;;0.40;;
27015;SDS011;14557;0.000;0.000;2023-02-01T04:56:27;1.77;;;0.40;;
27015;SDS011;14557;0.000;0.000;2023-02-01T04:58:53;1.95;;;0.40;;
27015;SDS011;14557;0.000;0.000;2023-02-01T05:01:18;1.08;;;0.30;;
27015;SDS011;14557;0.000;0.000;2023-02-01T05:03:44;1.27;;;0.50;;
27015;SDS011;14557;0.000;0.000;2023-02-01T05:06:10;1.05;;;0.38;;
27015;SDS011;14557;0.000;0.000;2023-02-01T05:08:36;1.08;;;0.20;;
27015;SDS011;14557;0.000;0.000;2023-02-01T05:11:01;1.20;;;0.40;;
27015;SDS011;14557;0.000;0.000;2023-02-01T05:13:30;1.00;;;0.40;;
27015;SDS011;14557;0.000;0.000;2023-02-01T05:16:14;0.70;;;0.22;;
27015;SDS011;14557;0.000;0.000;2023-02-01T05:18:40;1.48;;;0.30;;
27015;SDS011;14557;0.000;0.000;2023-02-01T05:21:06;1.15;;;0.30;;
27015;SDS011;14557;0.000;0.000;2023-02-01T05:23:32;0.50;;;0.20;;
27015;SDS011;14557;0.000;0.000;2023-02-01T05:26:18;1.08;;;0.28;;
27015;SDS011;14557;0.000;0.000;2023-02-01T05:28:44;1.13;;;0.38;;
27015;SDS011;14557;0.000;0.000;2023-02-01T05:31:10;0.98;;;0.10;;
27015;SDS011;14557;0.000;0.000;2023-02-01T05:33:36;1.02;;;0.30;;
27015;SDS011;14557;0.000;0.000;2023-02-01T05:36:02;0.57;;;0.20;;
27015;SDS011;14557;0.000;0.000;2023-02-01T05:38:28;2.50;;;0.30;;
27015;SDS011;14557;0.000;0.000;2023-02-01T05:40:57;1.65;;;0.32;;
27015;SDS011;14557;0.000;0.000;2023-02-01T05:43:22;0.88;;;0.25;;
27015;SDS011;14557;0.000;0.000;2023-02-01T05:45:48;1.25;;;0.30;;
27015;SDS011;14557;0.000;0.000;2023-02-01T05:48:14;0.98;;;0.20;;
27015;SDS011;14557;0.000;0.000;2023-02-01T05:50:40;0.57;;;0.20;;
27015;SDS011;14557;0.000;0.000;2023-02-01T05:53:05;1.33;;;0.40;;
27015;SDS011;14557;0.000;0.000;2023-02-01T05:55:31;0.60;;;0.20;;
27015;SDS011;14557;0.000;0.000;2023-02-01T05:57:57;0.50;;;0.13;;
27015;SDS011;14557;0.000;0.000;2023-02-01T06:00:23;0.73;;;0.20;;
27015;SDS011;14557;0.000;0.000;2023-02-01T06:02:49;1.48;;;0.38;;
27015;SDS011;14557;0.000;0.000;2023-02-01T06:05:15;0.80;;;0.25;;
27015;SDS011;14557;0.000;0.000;2023-02-01T06:07:41;2.00;;;0.30;;
27015;SDS011;14557;0.000;0.000;2023-02-01T06:10:07;0.88;;;0.20;;
27015;SDS011;14557;0.000;0.000;2023-02-01T06:12:34;1.00;;;0.20;;
27015;SDS011;14557;0.000;0.000;2023-02-01T06:15:00;1.00;;;0.30;;
27015;SDS011;14557;0.000;0.000;2023-02-01T06:17:25;0.40;;;0.10;;
27015;SDS011;14557;0.000;0.000;2023-02-01T06:19:51;0.65;;;0.15;;
27015;SDS011;14557;0.000;0.000;2023-02-01T06:22:17;0.90;;;0.20;;
27015;SDS011;14557;0.000;0.000;2023-02-01T06:24:43;0.50;;;0.20;;
27015;SDS011;14557;0.000;0.000;2023-02-01T06:27:08;1.08;;;0.20;;
27015;SDS011;14557;0.000;0.000;2023-02-01T06:29:34;0.90;;;0.25;;
27015;SDS011;14557;0.000;0.000;2023-02-01T06:32:01;0.70;;;0.20;;
27015;SDS011;14557;0.000;0.000;2023-02-01T06:34:26;0.22;;;0.13;;
27015;SDS011;14557;0.000;0.000;2023-02-01T06:36:52;0.80;;;0.10;;
27015;SDS011;14557;0.000;0.000;2023-02-01T06:39:20;1.48;;;0.20;;
27015;SDS011;14557;0.000;0.000;2023-02-01T06:41:49;0.32;;;0.10;;
27015;SDS011;14557;0.000;0.000;2023-02-01T06:44:15;0.68;;;0.30;;
27015;SDS011;14557;0.000;0.000;2023-02-01T06:46:42;0.73;;;0.20;;
27015;SDS011;14557;0.000;0.000;2023-02-01T06:49:07;1.02;;;0.15;;
27015;SDS011;14557;0.000;0.000;2023-02-01T06:51:33;0.70;;;0.10;;
27015;SDS011;14557;0.000;0.000;2023-02-01T06:53:59;0.57;;;0.30;;
27015;SDS011;14557;0.000;0.000;2023-02-01T06:56:25;0.70;;;0.20;;
27015;SDS011;14557;0.000;0.000;2023-02-01T06:58:52;0.70;;;0.22;;
27015;SDS011;14557;0.000;0.000;2023-02-01T07:01:18;0.40;;;0.10;;
27015;SDS011;14557;0.000;0.000;2023-02-01T07:03:50;0.70;;;0.20;;
27015;SDS011;14557;0.000;0.000;2023-02-01T07:06:16;0.73;;;0.30;;
27015;SDS011;14557;0.000;0.000;2023-02-01T07:08:43;0.50;;;0.20;;
27015;SDS011;14557;0.000;0.000;2023-02-01T07:11:11;0.52;;;0.10;;
27015;SDS011;14557;0.000;0.000;2023-02-01T07:13:38;0.68;;;0.20;;
27015;SDS011;14557;0.000;0.000;2023-02-01T07:16:05;0.40;;;0.20;;
27015;SDS011;14557;0.000;0.000;2023-02-01T07:18:34;0.47;;;0.20;;
27015;SDS011;14557;0.000;0.000;2023-02-01T07:20:59;1.52;;;0.40;;
27015;SDS011;14557;0.000;0.000;2023-02-01T07:23:26;1.05;;;0.22;;
27015;SDS011;14557;0.000;0.000;2023-02-01T07:25:53;0.95;;;0.25;;
27015;SDS011;14557;0.000;0.000;2023-02-01T07:30:45;1.27;;;0.30;;
27015;SDS011;14557;0.000;0.000;2023-02-01T07:33:24;2.22;;;0.30;;
27015;SDS011;14557;0.000;0.000;2023-02-01T07:35:51;0.50;;;0.10;;
27015;SDS011;14557;0.000;0.000;2023-02-01T07:38:17;1.17;;;0.20;;
27015;SDS011;14557;0.000;0.000;2023-02-01T07:40:44;0.68;;;0.30;;
27015;SDS011;14557;0.000;0.000;2023-02-01T07:43:10;0.95;;;0.20;;
27015;SDS011;14557;0.000;0.000;2023-02-01T07:45:36;9.38;;;0.52;;
27015;SDS011;14557;0.000;0.000;2023-02-01T07:48:02;7.25;;;0.50;;
27015;SDS011;14557;0.000;0.000;2023-02-01T07:50:28;1.30;;;0.40;;
27015;SDS011;14557;0.000;0.000;2023-02-01T07:52:54;2.63;;;0.30;;
27015;SDS011;14557;0.000;0.000;2023-02-01T07:55:23;3.03;;;0.38;;
27015;SDS011;14557;0.000;0.000;2023-02-01T07:57:49;43.80;;;33.00;;
27015;SDS011;14557;0.000;0.000;2023-02-01T08:00:15;60.40;;;46.15;;
27015;SDS011;14557;0.000;0.000;2023-02-01T08:03:00;79.25;;;37.47;;
27015;SDS011;14557;0.000;0.000;2023-02-01T08:05:26;19.38;;;8.95;;
27015;SDS011;14557;0.000;0.000;2023-02-01T08:07:52;17.80;;;6.95;;
27015;SDS011;14557;0.000;0.000;2023-02-01T08:10:18;11.07;;;5.28;;
27015;SDS011;14557;0.000;0.000;2023-02-01T08:12:45;5.75;;;3.28;;
27015;SDS011;14557;0.000;0.000;2023-02-01T08:15:16;9.55;;;2.70;;
27015;SDS011;14557;0.000;0.000;2023-02-01T08:17:46;3.38;;;1.60;;
27015;SDS011;14557;0.000;0.000;2023-02-01T08:20:13;3.22;;;1.40;;
27015;SDS011;14557;0.000;0.000;2023-02-01T08:22:39;3.95;;;1.60;;
27015;SDS011;14557;0.000;0.000;2023-02-01T08:25:05;6.70;;;1.55;;
27015;SDS011;14557;0.000;0.000;2023-02-01T08:27:34;3.33;;;1.10;;
27015;SDS011;14557;0.000;0.000;2023-02-01T08:30:00;7.07;;;1.45;;
27015;SDS011;14557;0.000;0.000;2023-02-01T08:32:27;5.40;;;2.20;;
27015;SDS011;14557;0.000;0.000;2023-02-01T08:34:52;5.70;;;2.10;;
27015;SDS011;14557;0.000;0.000;2023-02-01T08:37:18;5.60;;;2.10;;
27015;SDS011;14557;0.000;0.000;2023-02-01T08:39:44;4.35;;;1.92;;
27015;SDS011;14557;0.000;0.000;2023-02-01T08:42:12;7.05;;;2.10;;
27015;SDS011;14557;0.000;0.000;2023-02-01T08:44:56;5.03;;;1.45;;
27015;SDS011;14557;0.000;0.000;2023-02-01T08:47:22;5.55;;;1.92;;
27015;SDS011;14557;0.000;0.000;2023-02-01T08:49:48;5.93;;;1.40;;
27015;SDS011;14557;0.000;0.000;2023-02-01T08:52:14;3.83;;;1.10;;
27015;SDS011;14557;0.000;0.000;2023-02-01T08:54:39;2.20;;;0.73;;
27015;SDS011;14557;0.000;0.000;2023-02-01T08:57:06;3.50;;;1.20;;
27015;SDS011;14557;0.000;0.000;2023-02-01T08:59:32;2.35;;;1.08;;
27015;SDS011;14557;0.000;0.000;2023-02-01T09:01:58;3.45;;;0.95;;
27015;SDS011;14557;0.000;0.000;2023-02-01T09:04:24;3.28;;;0.88;;
27015;SDS011;14557;0.000;0.000;2023-02-01T09:06:49;4.10;;;1.17;;
27015;SDS011;14557;0.000;0.000;2023-02-01T09:09:15;2.15;;;1.00;;
27015;SDS011;14557;0.000;0.000;2023-02-01T09:11:41;8.00;;;1.65;;
27015;SDS011;14557;0.000;0.000;2023-02-01T09:14:06;1.90;;;0.55;;
27015;SDS011;14557;0.000;0.000;2023-02-01T09:16:32;3.03;;;1.00;;
27015;SDS011;14557;0.000;0.000;2023-02-01T09:18:58;2.28;;;0.70;;
27015;SDS011;14557;0.000;0.000;2023-02-01T09:21:23;2.38;;;0.60;;
27015;SDS011;14557;0.000;0.000;2023-02-01T09:23:52;2.97;;;1.17;;
27015;SDS011;14557;0.000;0.000;2023-02-01T09:26:18;5.38;;;0.70;;
27015;SDS011;14557;0.000;0.000;2023-02-01T09:28:43;3.80;;;1.67;;
27015;SDS011;14557;0.000;0.000;2023-02-01T09:31:09;5.70;;;2.80;;
27015;SDS011;14557;0.000;0.000;2023-02-01T09:33:35;7.72;;;2.45;;
27015;SDS011;14557;0.000;0.000;2023-02-01T09:36:02;4.88;;;2.80;;
27015;SDS011;14557;0.000;0.000;2023-02-01T09:38:29;4.07;;;1.75;;
27015;SDS011;14557;0.000;0.000;2023-02-01T09:40:57;6.22;;;1.80;;
27015;SDS011;14557;0.000;0.000;2023-02-01T09:49:20;1.52;;;0.90;;
27015;SDS011;14557;0.000;0.000;2023-02-01T09:51:48;3.45;;;0.88;;
27015;SDS011;14557;0.000;0.000;2023-02-01T09:54:23;4.03;;;0.90;;
27015;SDS011;14557;0.000;0.000;2023-02-01T09:57:24;3.08;;;0.65;;
27015;SDS011;14557;0.000;0.000;2023-02-01T10:00:06;1.40;;;0.50;;
27015;SDS011;14557;0.000;0.000;2023-02-01T10:02:40;1.92;;;0.80;;
27015;SDS011;14557;0.000;0.000;2023-02-01T10:05:10;2.60;;;0.70;;
27015;SDS011;14557;0.000;0.000;2023-02-01T10:07:59;2.42;;;0.70;;
27015;SDS011;14557;0.000;0.000;2023-02-01T10:10:35;1.95;;;0.55;;
27015;SDS011;14557;0.000;0.000;2023-02-01T10:16:22;1.42;;;0.75;;
27015;SDS011;14557;0.000;0.000;2023-02-01T10:22:08;1.27;;;0.45;;
27015;SDS011;14557;0.000;0.000;2023-02-01T10:27:33;2.47;;;0.50;;
27015;SDS011;14557;0.000;0.000;2023-02-01T10:30:04;3.05;;;0.60;;
27015;SDS011;14557;0.000;0.000;2023-02-01T10:32:39;1.60;;;0.50;;
27015;SDS011;14557;0.000;0.000;2023-02-01T10:35:14;2.95;;;0.80;;
27015;SDS011;14557;0.000;0.000;2023-02-01T10:37:42;1.98;;;0.70;;
27015;SDS011;14557;0.000;0.000;2023-02-01T10:40:17;2.35;;;0.70;;
27015;SDS011;14557;0.000;0.000;2023-02-01T10:42:54;2.15;;;0.82;;
27015;SDS011;14557;0.000;0.000;2023-02-01T10:45:26;3.72;;;0.73;;
27015;SDS011;14557;0.000;0.000;2023-02-01T10:47:55;3.38;;;1.17;;
27015;SDS011;14557;0.000;0.000;2023-02-01T10:55:56;1.83;;;0.80;;
27015;SDS011;14557;0.000;0.000;2023-02-01T10:58:29;1.92;;;0.70;;
27015;SDS011;14557;0.000;0.000;2023-02-01T11:01:05;2.45;;;0.55;;
27015;SDS011;14557;0.000;0.000;2023-02-01T11:03:36;3.35;;;1.17;;
27015;SDS011;14557;0.000;0.000;2023-02-01T11:06:11;4.20;;;0.50;;
27015;SDS011;14557;0.000;0.000;2023-02-01T11:08:53;2.50;;;0.65;;
27015;SDS011;14557;0.000;0.000;2023-02-01T11:11:20;2.60;;;0.70;;
27015;SDS011;14557;0.000;0.000;2023-02-01T11:13:54;2.75;;;0.65;;
27015;SDS011;14557;0.000;0.000;2023-02-01T11:16:23;1.70;;;0.55;;
27015;SDS011;14557;0.000;0.000;2023-02-01T11:19:01;4.30;;;0.60;;
27015;SDS011;14557;0.000;0.000;2023-02-01T11:21:26;2.05;;;0.73;;
27015;SDS011;14557;0.000;0.000;2023-02-01T11:23:53;2.40;;;0.70;;
27015;SDS011;14557;0.000;0.000;2023-02-01T11:26:23;2.78;;;0.70;;
27015;SDS011;14557;0.000;0.000;2023-02-01T11:28:52;2.75;;;0.70;;
27015;SDS011;14557;0.000;0.000;2023-02-01T11:31:22;1.75;;;0.70;;
27015;SDS011;14557;0.000;0.000;2023-02-01T11:33:51;1.48;;;0.55;;
27015;SDS011;14557;0.000;0.000;2023-02-01T11:36:30;1.83;;;0.60;;
27015;SDS011;14557;0.000;0.000;2023-02-01T11:44:26;2.47;;;0.85;;
27015;SDS011;14557;0.000;0.000;2023-02-01T11:49:54;1.20;;;0.47;;
27015;SDS011;14557;0.000;0.000;2023-02-01T11:58:18;2.08;;;0.50;;
27015;SDS011;14557;0.000;0.000;2023-02-01T12:06:48;2.50;;;0.50;;
27015;SDS011;14557;0.000;0.000;2023-02-01T12:12:14;1.58;;;0.47;;
27015;SDS011;14557;0.000;0.000;2023-02-01T12:25:52;2.20;;;0.85;;
27015;SDS011;14557;0.000;0.000;2023-02-01T12:31:43;2.40;;;0.73;;
27015;SDS011;14557;0.000;0.000;2023-02-01T12:50:43;15.25;;;8.95;;
27015;SDS011;14557;0.000;0.000;2023-02-01T12:53:15;9.38;;;5.78;;
27015;SDS011;14557;0.000;0.000;2023-02-01T12:56:03;4.72;;;1.67;;
27015;SDS011;14557;0.000;0.000;2023-02-01T12:58:49;3.63;;;1.50;;
27015;SDS011;14557;0.000;0.000;2023-02-01T13:12:26;2.45;;;0.80;;
27015;SDS011;14557;0.000;0.000;2023-02-01T13:15:02;2.78;;;1.02;;
27015;SDS011;14557;0.000;0.000;2023-02-01T13:17:30;2.95;;;1.10;;
27015;SDS011;14557;0.000;0.000;2023-02-01T13:22:44;3.05;;;1.08;;
27015;SDS011;14557;0.000;0.000;2023-02-01T13:28:06;2.72;;;1.02;;
27015;SDS011;14557;0.000;0.000;2023-02-01T13:31:04;2.53;;;0.90;;
27015;SDS011;14557;0.000;0.000;2023-02-01T13:34:52;5.60;;;1.10;;
27015;SDS011;14557;0.000;0.000;2023-02-01T13:42:22;3.23;;;1.17;;
27015;SDS011;14557;0.000;0.000;2023-02-01T13:45:02;2.72;;;0.73;;
27015;SDS011;14557;0.000;0.000;2023-02-01T13:47:32;8.57;;;3.67;;
27015;SDS011;14557;0.000;0.000;2023-02-01T13:50:02;4.07;;;1.10;;
27015;SDS011;14557;0.000;0.000;2023-02-01T13:52:44;4.65;;;1.00;;
27015;SDS011;14557;0.000;0.000;2023-02-01T13:57:45;2.65;;;0.98;;
27015;SDS011;14557;0.000;0.000;2023-02-01T14:00:35;3.15;;;0.80;;
27015;SDS011;14557;0.000;0.000;2023-02-01T14:13:23;2.28;;;0.82;;
27015;SDS011;14557;0.000;0.000;2023-02-01T14:23:46;2.23;;;0.80;;
27015;SDS011;14557;0.000;0.000;2023-02-01T14:26:48;1.63;;;0.70;;
27015;SDS011;14557;0.000;0.000;2023-02-01T14:39:53;2.40;;;0.68;;
27015;SDS011;14557;0.000;0.000;2023-02-01T14:47:50;3.38;;;0.90;;
27015;SDS011;14557;0.000;0.000;2023-02-01T14:50:39;2.40;;;0.70;;
27015;SDS011;14557;0.000;0.000;2023-02-01T15:01:26;1.88;;;0.57;;
27015;SDS011;14557;0.000;0.000;2023-02-01T15:04:08;3.08;;;0.70;;
27015;SDS011;14557;0.000;0.000;2023-02-01T15:09:38;2.15;;;0.63;;
27015;SDS011;14557;0.000;0.000;2023-02-01T15:14:46;4.15;;;1.00;;
27015;SDS011;14557;0.000;0.000;2023-02-01T15:19:55;2.28;;;0.60;;
27015;SDS011;14557;0.000;0.000;2023-02-01T15:22:22;1.42;;;0.50;;
27015;SDS011;14557;0.000;0.000;2023-02-01T15:24:55;6.53;;;0.80;;
27015;SDS011;14557;0.000;0.000;2023-02-01T15:27:25;2.40;;;0.52;;
27015;SDS011;14557;0.000;0.000;2023-02-01T15:29:52;3.38;;;0.60;;
27015;SDS011;14557;0.000;0.000;2023-02-01T15:32:32;2.05;;;0.50;;
27015;SDS011;14557;0.000;0.000;2023-02-01T15:34:59;3.15;;;0.82;;
27015;SDS011;14557;0.000;0.000;2023-02-01T15:37:27;2.45;;;0.70;;
27015;SDS011;14557;0.000;0.000;2023-02-01T15:42:39;2.42;;;0.80;;
27015;SDS011;14557;0.000;0.000;2023-02-01T15:45:18;2.78;;;0.60;;
27015;SDS011;14557;0.000;0.000;2023-02-01T15:47:49;2.17;;;0.60;;
27015;SDS011;14557;0.000;0.000;2023-02-01T15:50:18;2.10;;;0.75;;
27015;SDS011;14557;0.000;0.000;2023-02-01T15:52:46;1.83;;;0.55;;
27015;SDS011;14557;0.000;0.000;2023-02-01T15:55:21;1.85;;;0.90;;
27015;SDS011;14557;0.000;0.000;2023-02-01T15:57:56;2.55;;;0.65;;
27015;SDS011;14557;0.000;0.000;2023-02-01T16:00:25;1.77;;;0.50;;
27015;SDS011;14557;0.000;0.000;2023-02-01T16:02:55;2.22;;;0.60;;
27015;SDS011;14557;0.000;0.000;2023-02-01T16:05:30;2.17;;;0.63;;
27015;SDS011;14557;0.000;0.000;2023-02-01T16:08:13;4.97;;;0.82;;
27015;SDS011;14557;0.000;0.000;2023-02-01T16:10:47;1.65;;;0.50;;
27015;SDS011;14557;0.000;0.000;2023-02-01T16:13:15;1.90;;;0.47;;
27015;SDS011;14557;0.000;0.000;2023-02-01T16:15:43;2.60;;;0.47;;
27015;SDS011;14557;0.000;0.000;2023-02-01T16:18:09;1.83;;;0.57;;
27015;SDS011;14557;0.000;0.000;2023-02-01T16:20:37;1.48;;;0.52;;
27015;SDS011;14557;0.000;0.000;2023-02-01T16:23:04;3.00;;;0.80;;
27015;SDS011;14557;0.000;0.000;2023-02-01T16:25:31;3.15;;;0.50;;
27015;SDS011;14557;0.000;0.000;2023-02-01T16:27:57;1.30;;;0.50;;
27015;SDS011;14557;0.000;0.000;2023-02-01T16:30:23;2.13;;;0.60;;
27015;SDS011;14557;0.000;0.000;2023-02-01T16:32:58;2.08;;;0.70;;
27015;SDS011;14557;0.000;0.000;2023-02-01T16:35:34;3.30;;;0.40;;
27015;SDS011;14557;0.000;0.000;2023-02-01T16:38:02;1.98;;;0.50;;
27015;SDS011;14557;0.000;0.000;2023-02-01T16:40:41;2.28;;;0.50;;
27015;SDS011;14557;0.000;0.000;2023-02-01T16:43:12;3.92;;;0.95;;
27015;SDS011;14557;0.000;0.000;2023-02-01T16:45:39;2.85;;;0.88;;
27015;SDS011;14557;0.000;0.000;2023-02-01T16:50:33;2.83;;;0.47;;
27015;SDS011;14557;0.000;0.000;2023-02-01T16:52:59;4.38;;;0.77;;
27015;SDS011;14557;0.000;0.000;2023-02-01T16:55:26;2.67;;;0.60;;
27015;SDS011;14557;0.000;0.000;2023-02-01T16:57:52;3.37;;;0.40;;
27015;SDS011;14557;0.000;0.000;2023-02-01T17:00:18;2.78;;;0.77;;
27015;SDS011;14557;0.000;0.000;2023-02-01T17:02:45;4.15;;;0.70;;
27015;SDS011;14557;0.000;0.000;2023-02-01T17:05:11;5.70;;;0.70;;
27015;SDS011;14557;0.000;0.000;2023-02-01T17:07:37;3.25;;;0.50;;
27015;SDS011;14557;0.000;0.000;2023-02-01T17:10:04;0.73;;;0.32;;
27015;SDS011;14557;0.000;0.000;2023-02-01T17:12:31;2.72;;;0.75;;
27015;SDS011;14557;0.000;0.000;2023-02-01T17:14:58;2.35;;;0.65;;
27015;SDS011;14557;0.000;0.000;2023-02-01T17:17:25;2.80;;;0.52;;
27015;SDS011;14557;0.000;0.000;2023-02-01T17:19:56;2.05;;;0.50;;
27015;SDS011;14557;0.000;0.000;2023-02-01T17:22:22;4.90;;;0.50;;
27015;SDS011;14557;0.000;0.000;2023-02-01T17:24:48;2.72;;;0.32;;
27015;SDS011;14557;0.000;0.000;2023-02-01T17:27:17;10.43;;;1.25;;
27015;SDS011;14557;0.000;0.000;2023-02-01T17:29:43;2.30;;;0.50;;
27015;SDS011;14557;0.000;0.000;2023-02-01T17:32:21;2.28;;;0.65;;
27015;SDS011;14557;0.000;0.000;2023-02-01T17:34:48;1.52;;;0.40;;
27015;SDS011;14557;0.000;0.000;2023-02-01T17:37:21;5.55;;;0.55;;
27015;SDS011;14557;0.000;0.000;2023-02-01T17:39:53;4.05;;;0.63;;
27015;SDS011;14557;0.000;0.000;2023-02-01T17:42:19;4.38;;;0.70;;
27015;SDS011;14557;0.000;0.000;2023-02-01T17:44:45;3.58;;;0.60;;
27015;SDS011;14557;0.000;0.000;2023-02-01T17:47:11;5.28;;;0.90;;
27015;SDS011;14557;0.000;0.000;2023-02-01T17:49:36;3.38;;;0.98;;
27015;SDS011;14557;0.000;0.000;2023-02-01T17:52:03;2.83;;;0.70;;
27015;SDS011;14557;0.000;0.000;2023-02-01T17:54:29;3.40;;;0.80;;
27015;SDS011;14557;0.000;0.000;2023-02-01T17:56:55;6.60;;;0.75;;
27015;SDS011;14557;0.000;0.000;2023-02-01T17:59:24;4.70;;;1.15;;
27015;SDS011;14557;0.000;0.000;2023-02-01T18:01:50;146.52;;;52.33;;
27015;SDS011;14557;0.000;0.000;2023-02-01T18:04:18;92.00;;;50.38;;
27015;SDS011;14557;0.000;0.000;2023-02-01T18:06:44;26.10;;;10.47;;
27015;SDS011;14557;0.000;0.000;2023-02-01T18:09:10;19.88;;;7.20;;
27015;SDS011;14557;0.000;0.000;2023-02-01T18:11:35;27.77;;;9.30;;
27015;SDS011;14557;0.000;0.000;2023-02-01T18:14:01;23.08;;;7.82;;
27015;SDS011;14557;0.000;0.000;2023-02-01T18:16:31;16.25;;;6.30;;
27015;SDS011;14557;0.000;0.000;2023-02-01T18:18:58;14.48;;;6.18;;
27015;SDS011;14557;0.000;0.000;2023-02-01T18:21:32;14.00;;;5.43;;
27015;SDS011;14557;0.000;0.000;2023-02-01T18:24:01;12.02;;;4.50;;
27015;SDS011;14557;0.000;0.000;2023-02-01T18:26:27;11.45;;;4.18;;
27015;SDS011;14557;0.000;0.000;2023-02-01T18:28:53;14.63;;;4.22;;
27015;SDS011;14557;0.000;0.000;2023-02-01T18:33:49;11.32;;;3.35;;
27015;SDS011;14557;0.000;0.000;2023-02-01T18:36:16;10.63;;;3.75;;
27015;SDS011;14557;0.000;0.000;2023-02-01T18:38:42;8.20;;;3.22;;
27015;SDS011;14557;0.000;0.000;2023-02-01T18:41:10;10.50;;;3.17;;
27015;SDS011;14557;0.000;0.000;2023-02-01T18:43:41;11.65;;;2.90;;
27015;SDS011;14557;0.000;0.000;2023-02-01T18:46:10;8.10;;;3.05;;
27015;SDS011;14557;0.000;0.000;2023-02-01T18:48:36;7.07;;;2.47;;